Airport View

Enter AWOS ICAO identifier for current METAR.

ex. KFNL

CYQH 080300Z 24007KT 30SM BKN100 18/07 A2979 RMK AC7 SLP096 DENSITY ALT 3300FT

8 Jul 2020 03:28

Other Area AWOS: CWZV

TAF CYQH 072338Z 0800/0812 VRB03KT P6SM SCT060 BKN090 TEMPO 0800/0812 P6SM -SHRA BKN060 RMK NXT FCST BY 080600Z